createdAt,value
2022-12-06T00:01:23.636Z,7.20
2022-12-06T00:06:27.591Z,7.16
2022-12-06T00:11:33.081Z,7.17
2022-12-06T00:16:37.839Z,7.16
2022-12-06T00:21:39.643Z,7.14
2022-12-06T00:26:43.101Z,7.19
2022-12-06T00:31:47.501Z,7.24
2022-12-06T00:36:48.733Z,7.29
2022-12-06T00:41:49.844Z,7.30
2022-12-06T00:46:50.900Z,7.25
2022-12-06T00:51:52.000Z,7.18
2022-12-06T00:56:53.277Z,7.10
2022-12-06T01:01:54.452Z,6.86
2022-12-06T01:06:55.711Z,6.53
2022-12-06T01:11:57.704Z,6.24
2022-12-06T01:16:58.736Z,6.15
2022-12-06T01:21:59.803Z,6.04
2022-12-06T01:27:00.825Z,5.99
2022-12-06T01:32:01.823Z,5.97
2022-12-06T01:37:02.923Z,5.93
2022-12-06T01:42:04.151Z,5.88
2022-12-06T01:47:10.668Z,5.81
2022-12-06T01:52:13.534Z,5.76
2022-12-06T01:57:16.859Z,5.71
2022-12-06T02:02:18.104Z,5.66
2022-12-06T02:07:21.656Z,5.63
2022-12-06T02:12:22.864Z,5.64
2022-12-06T02:17:26.976Z,5.59
2022-12-06T02:22:38.953Z,5.58
2022-12-06T02:27:39.935Z,5.60
2022-12-06T02:33:06.009Z,5.63
2022-12-06T02:38:32.424Z,5.56
2022-12-06T02:44:00.801Z,5.47
2022-12-06T02:49:03.384Z,5.51
2022-12-06T02:54:08.207Z,5.56
2022-12-06T02:59:10.226Z,5.65
2022-12-06T03:04:30.961Z,5.77
2022-12-06T03:09:54.365Z,5.74
2022-12-06T03:15:08.534Z,5.84
2022-12-06T03:20:24.351Z,5.83
2022-12-06T03:25:26.922Z,5.84
2022-12-06T03:30:31.930Z,5.95
2022-12-06T03:35:34.980Z,6.10
2022-12-06T03:40:40.629Z,6.31
2022-12-06T03:46:05.985Z,6.47
2022-12-06T03:51:11.596Z,6.62
2022-12-06T03:56:13.532Z,6.74
2022-12-06T04:01:15.069Z,6.72
2022-12-06T04:06:16.271Z,6.66
2022-12-06T04:11:17.505Z,6.69
2022-12-06T04:16:37.115Z,6.78
2022-12-06T04:21:56.727Z,6.81
2022-12-06T04:27:20.655Z,6.91
2022-12-06T04:32:40.329Z,7.01
2022-12-06T04:38:00.367Z,7.07
2022-12-06T04:43:20.239Z,7.00
2022-12-06T04:48:22.042Z,7.05
2022-12-06T04:53:23.121Z,7.07
2022-12-06T04:58:24.529Z,7.08
2022-12-06T05:03:25.594Z,7.08
2022-12-06T05:08:27.079Z,7.00
2022-12-06T05:13:28.163Z,6.92
2022-12-06T05:18:30.139Z,6.91
2022-12-06T05:23:32.744Z,6.93
2022-12-06T05:28:34.399Z,6.95
2022-12-06T05:33:36.630Z,6.97
2022-12-06T05:38:38.066Z,7.00
2022-12-06T05:43:39.722Z,6.91
2022-12-06T05:48:40.907Z,6.54
2022-12-06T05:53:41.964Z,6.39
2022-12-06T05:58:42.971Z,6.41
2022-12-06T06:03:47.753Z,6.49
2022-12-06T06:08:49.436Z,6.56
2022-12-06T06:13:50.780Z,6.58
2022-12-06T06:18:52.081Z,6.63
2022-12-06T06:23:56.484Z,6.60
2022-12-06T06:28:57.635Z,6.36
2022-12-06T06:33:58.702Z,6.47
2022-12-06T06:38:59.978Z,6.64
2022-12-06T06:44:01.144Z,6.75
2022-12-06T06:49:03.177Z,6.80
2022-12-06T06:54:04.532Z,6.74
2022-12-06T06:59:06.040Z,6.57
2022-12-06T07:04:07.314Z,6.43
2022-12-06T07:09:08.656Z,6.43
2022-12-06T07:14:09.700Z,6.41
2022-12-06T07:19:10.783Z,6.33
2022-12-06T07:24:11.966Z,6.30
2022-12-06T07:29:13.117Z,6.29
2022-12-06T07:34:14.175Z,6.34
2022-12-06T07:39:15.330Z,6.39
2022-12-06T07:44:35.531Z,6.43
2022-12-06T07:49:36.575Z,6.40
2022-12-06T07:54:37.582Z,6.35
2022-12-06T07:59:38.688Z,6.37
2022-12-06T08:04:39.780Z,6.45
2022-12-06T08:09:41.128Z,6.61
2022-12-06T08:14:42.162Z,6.77
2022-12-06T08:19:43.163Z,6.98
2022-12-06T08:24:44.163Z,7.16
2022-12-06T08:29:45.186Z,7.32
2022-12-06T08:34:46.436Z,7.48
2022-12-06T08:39:47.414Z,7.62
2022-12-06T08:44:51.099Z,7.69
2022-12-06T08:49:52.159Z,7.72
2022-12-06T08:54:53.196Z,7.74
2022-12-06T08:59:55.010Z,7.73
2022-12-06T09:04:56.195Z,7.67
2022-12-06T09:09:57.410Z,7.62
2022-12-06T09:14:58.593Z,7.64
2022-12-06T09:20:05.306Z,7.65
2022-12-06T09:25:07.545Z,7.65
2022-12-06T09:30:09.425Z,7.63
2022-12-06T09:35:15.105Z,7.59
2022-12-06T09:40:29.152Z,7.56
2022-12-06T09:46:14.743Z,7.52
2022-12-06T09:51:30.936Z,7.46
2022-12-06T09:56:56.900Z,7.43
2022-12-06T10:02:16.773Z,7.34
2022-12-06T10:07:34.018Z,7.27
2022-12-06T10:12:53.795Z,7.20
2022-12-06T10:17:58.410Z,7.13
2022-12-06T10:23:17.157Z,6.98
2022-12-06T10:28:42.176Z,6.77
2022-12-06T10:34:00.748Z,6.62
2022-12-06T10:39:13.606Z,6.46
2022-12-06T10:44:40.208Z,6.38
2022-12-06T10:50:07.915Z,6.43
2022-12-06T10:55:08.960Z,6.49
2022-12-06T11:00:22.701Z,6.41
2022-12-06T11:05:33.807Z,6.22
2022-12-06T11:10:35.655Z,6.01
2022-12-06T11:15:41.739Z,5.90
2022-12-06T11:20:56.153Z,5.85
2022-12-06T11:26:22.196Z,5.78
2022-12-06T11:31:30.608Z,5.76
2022-12-06T11:36:32.405Z,5.73
2022-12-06T11:41:36.842Z,5.75
2022-12-06T11:46:39.260Z,5.77
2022-12-06T11:51:40.409Z,5.81
2022-12-06T11:56:42.175Z,5.95
2022-12-06T12:01:49.719Z,6.08
2022-12-06T12:06:57.355Z,6.11
2022-12-06T12:12:05.386Z,6.03
2022-12-06T12:17:19.879Z,5.95
2022-12-06T12:22:28.830Z,5.99
2022-12-06T12:28:13.265Z,5.98
2022-12-06T12:33:16.929Z,5.93
2022-12-06T12:38:24.161Z,5.82
2022-12-06T12:43:30.301Z,5.69
2022-12-06T12:48:32.377Z,5.59
2022-12-06T12:53:40.637Z,5.53
2022-12-06T12:58:43.718Z,5.52
2022-12-06T13:03:51.467Z,5.44
2022-12-06T13:08:55.852Z,5.36
2022-12-06T13:13:59.144Z,5.27
2022-12-06T13:19:01.665Z,5.19
2022-12-06T13:24:12.908Z,5.19
2022-12-06T13:29:44.540Z,5.15
2022-12-06T13:34:51.315Z,5.11
2022-12-06T13:39:52.490Z,5.07
2022-12-06T13:44:59.287Z,5.03
2022-12-06T13:50:23.268Z,5.00
2022-12-06T13:55:24.313Z,4.96
2022-12-06T14:00:28.266Z,4.96
2022-12-06T14:06:02.220Z,4.87
2022-12-06T14:11:16.576Z,4.78
2022-12-06T14:17:04.265Z,4.68
2022-12-06T14:22:27.410Z,4.62
2022-12-06T14:27:34.382Z,4.45
2022-12-06T14:32:44.333Z,4.37
2022-12-06T14:37:51.932Z,4.27
2022-12-06T14:43:16.433Z,4.11
2022-12-06T14:48:18.221Z,3.93
2022-12-06T14:53:30.859Z,3.84
2022-12-06T14:58:44.884Z,3.79
2022-12-06T15:03:59.902Z,3.73
2022-12-06T15:09:01.045Z,3.62
2022-12-06T15:14:21.738Z,3.56
2022-12-06T15:19:22.966Z,3.52
2022-12-06T15:24:26.289Z,3.54
2022-12-06T15:29:27.334Z,3.52
2022-12-06T15:34:31.285Z,3.47
2022-12-06T15:39:32.343Z,3.48
2022-12-06T15:44:33.324Z,3.46
2022-12-06T15:49:34.591Z,3.48
2022-12-06T15:54:35.694Z,3.52
2022-12-06T15:59:36.755Z,3.65
2022-12-06T16:04:37.640Z,3.69
2022-12-06T16:09:38.515Z,3.80
2022-12-06T16:14:39.463Z,3.86
2022-12-06T16:19:59.131Z,3.81
2022-12-06T16:25:00.097Z,3.72
2022-12-06T16:30:02.800Z,3.66
2022-12-06T16:35:04.518Z,3.59
2022-12-06T16:40:07.455Z,3.47
2022-12-06T16:45:08.951Z,3.40
2022-12-06T16:50:19.357Z,3.25
2022-12-06T16:55:20.754Z,3.08
2022-12-06T17:00:25.355Z,2.95
2022-12-06T17:05:27.391Z,2.92
2022-12-06T17:10:28.467Z,2.91
2022-12-06T17:15:29.579Z,2.97
2022-12-06T17:20:30.505Z,2.98
2022-12-06T17:25:31.462Z,2.86
2022-12-06T17:30:33.050Z,2.73
2022-12-06T17:35:35.613Z,2.64
2022-12-06T17:40:36.542Z,2.58
2022-12-06T17:45:37.490Z,2.49
2022-12-06T17:50:38.507Z,2.43
2022-12-06T17:55:39.434Z,2.42
2022-12-06T18:00:40.396Z,2.46
2022-12-06T18:05:44.232Z,2.44
2022-12-06T18:10:45.112Z,2.33
2022-12-06T18:15:46.104Z,2.20
2022-12-06T18:20:47.015Z,2.15
2022-12-06T18:25:48.726Z,2.11
2022-12-06T18:30:49.844Z,2.12
2022-12-06T18:35:51.772Z,2.16
2022-12-06T18:41:13.879Z,2.14
2022-12-06T18:46:17.372Z,2.11
2022-12-06T18:51:20.901Z,2.09
2022-12-06T18:56:24.243Z,2.08
2022-12-06T19:01:28.234Z,2.08
2022-12-06T19:06:37.317Z,2.06
2022-12-06T19:11:40.189Z,2.11
2022-12-06T19:16:46.773Z,2.21
2022-12-06T19:21:49.552Z,2.32
2022-12-06T19:26:52.118Z,2.34
2022-12-06T19:31:53.641Z,2.32
2022-12-06T19:36:56.376Z,2.33
2022-12-06T19:42:16.200Z,2.34
2022-12-06T19:47:17.155Z,2.36
2022-12-06T19:52:18.275Z,2.36
2022-12-06T19:57:19.258Z,2.38
2022-12-06T20:02:20.296Z,2.44
2022-12-06T20:07:21.276Z,2.49
2022-12-06T20:12:22.182Z,2.53
2022-12-06T20:17:23.224Z,2.54
2022-12-06T20:22:26.728Z,2.57
2022-12-06T20:27:46.447Z,2.58
2022-12-06T20:32:48.613Z,2.60
2022-12-06T20:37:50.703Z,2.65
2022-12-06T20:42:51.662Z,2.70
2022-12-06T20:47:53.216Z,2.73
2022-12-06T20:52:54.269Z,2.73
2022-12-06T20:57:55.318Z,2.72
2022-12-06T21:02:56.344Z,2.70
2022-12-06T21:07:57.661Z,2.68
2022-12-06T21:13:02.770Z,2.69
2022-12-06T21:18:06.746Z,2.67
2022-12-06T21:23:08.104Z,2.70
2022-12-06T21:28:09.019Z,2.72
2022-12-06T21:33:10.006Z,2.73
2022-12-06T21:38:11.837Z,2.78
2022-12-06T21:43:12.752Z,2.82
2022-12-06T21:48:13.685Z,2.86
2022-12-06T21:53:14.643Z,2.91
2022-12-06T21:58:15.579Z,2.96
2022-12-06T22:03:22.726Z,3.00
2022-12-06T22:08:25.114Z,3.02
2022-12-06T22:13:33.134Z,3.05
2022-12-06T22:18:39.854Z,3.08
2022-12-06T22:23:44.732Z,3.06
2022-12-06T22:28:46.868Z,3.06
2022-12-06T22:33:49.301Z,3.06
2022-12-06T22:38:52.080Z,3.11
2022-12-06T22:43:55.933Z,3.14
2022-12-06T22:48:58.352Z,3.16
2022-12-06T22:54:02.167Z,3.17
2022-12-06T22:59:03.164Z,3.19
2022-12-06T23:04:06.015Z,3.20
2022-12-06T23:09:07.814Z,3.19
2022-12-06T23:14:09.588Z,3.19
2022-12-06T23:19:10.681Z,3.19
2022-12-06T23:24:13.338Z,3.20
2022-12-06T23:29:15.293Z,3.21
2022-12-06T23:34:25.836Z,3.22
2022-12-06T23:39:26.817Z,3.22
2022-12-06T23:44:27.835Z,3.23
2022-12-06T23:49:28.815Z,3.22
2022-12-06T23:54:30.267Z,3.21
2022-12-06T23:59:31.244Z,3.20
